createdAt,value
2023-03-20T00:03:57.966Z,9.54
2023-03-20T00:08:59.764Z,9.82
2023-03-20T00:14:12.865Z,9.57
2023-03-20T00:19:19.464Z,9.52
2023-03-20T00:24:22.153Z,9.51
2023-03-20T00:29:26.927Z,9.43
2023-03-20T00:34:29.642Z,9.43
2023-03-20T00:39:31.777Z,9.69
2023-03-20T00:44:44.864Z,9.43
2023-03-20T00:49:50.743Z,9.52
2023-03-20T00:54:52.475Z,9.34
2023-03-20T01:00:29.134Z,9.17
2023-03-20T01:05:31.056Z,9.14
2023-03-20T01:10:33.301Z,9.30
2023-03-20T01:15:36.753Z,9.37
2023-03-20T01:20:39.265Z,9.28
2023-03-20T01:25:41.911Z,9.43
2023-03-20T01:30:44.615Z,9.34
2023-03-20T01:35:48.603Z,9.48
2023-03-20T01:41:08.499Z,9.32
2023-03-20T01:46:32.113Z,9.29
2023-03-20T01:51:47.738Z,9.30
2023-03-20T01:56:57.173Z,9.51
2023-03-20T02:01:59.550Z,9.59
2023-03-20T02:07:03.322Z,9.46
2023-03-20T02:12:20.037Z,9.53
2023-03-20T02:17:23.328Z,9.62
2023-03-20T02:23:05.996Z,9.91
2023-03-20T02:28:31.506Z,9.76
2023-03-20T02:33:54.777Z,9.69
2023-03-20T02:39:24.433Z,10.00
2023-03-20T02:44:41.102Z,10.13
2023-03-20T02:49:55.841Z,10.05
2023-03-20T02:55:23.982Z,9.92
2023-03-20T03:00:41.365Z,10.22
2023-03-20T03:06:00.252Z,10.17
2023-03-20T03:11:06.362Z,10.42
2023-03-20T03:16:18.882Z,10.46
2023-03-20T03:21:23.255Z,10.23
2023-03-20T03:26:28.881Z,10.30
2023-03-20T03:31:33.044Z,10.06
2023-03-20T03:36:59.395Z,10.17
2023-03-20T03:42:13.203Z,10.24
2023-03-20T03:47:19.948Z,9.94
2023-03-20T03:52:24.739Z,9.91
2023-03-20T03:57:52.767Z,10.08
2023-03-20T04:02:58.072Z,10.11
2023-03-20T04:08:02.076Z,10.12
2023-03-20T04:13:03.843Z,10.24
2023-03-20T04:18:05.763Z,10.46
2023-03-20T04:23:08.154Z,10.58
2023-03-20T04:28:11.897Z,10.51
2023-03-20T04:33:37.839Z,10.51
2023-03-20T04:39:08.256Z,10.43
2023-03-20T04:44:09.964Z,10.45
2023-03-20T04:49:11.729Z,10.33
2023-03-20T04:54:13.728Z,10.44
2023-03-20T04:59:17.085Z,10.22
2023-03-20T05:04:19.081Z,10.25
2023-03-20T05:09:21.557Z,10.26
2023-03-20T05:14:26.152Z,10.28
2023-03-20T05:19:48.006Z,10.22
2023-03-20T05:25:11.241Z,10.36
2023-03-20T05:30:19.719Z,10.28
2023-03-20T05:35:47.972Z,10.34
2023-03-20T05:41:01.793Z,10.43
2023-03-20T05:46:22.840Z,10.44
2023-03-20T05:51:43.364Z,10.32
2023-03-20T05:56:54.351Z,10.26
2023-03-20T06:02:02.000Z,10.35
2023-03-20T06:07:08.055Z,10.45
2023-03-20T06:12:11.300Z,10.30
2023-03-20T06:17:13.385Z,10.53
2023-03-20T06:22:16.426Z,10.54
2023-03-20T06:27:18.854Z,10.79
2023-03-20T06:32:23.488Z,10.50
2023-03-20T06:37:27.142Z,10.37
2023-03-20T06:42:36.330Z,10.39
2023-03-20T06:47:39.441Z,10.44
2023-03-20T06:52:41.982Z,10.57
2023-03-20T06:58:02.077Z,10.98
2023-03-20T07:03:04.768Z,11.20
2023-03-20T07:08:07.815Z,11.43
2023-03-20T07:13:10.471Z,11.41
2023-03-20T07:18:16.142Z,11.65
2023-03-20T07:23:18.082Z,12.30
2023-03-20T07:28:19.834Z,12.27
2023-03-20T07:33:27.204Z,12.82
2023-03-20T07:38:29.255Z,12.84
2023-03-20T07:43:41.650Z,13.08
2023-03-20T07:48:59.288Z,13.32
2023-03-20T07:54:01.186Z,13.47
2023-03-20T07:59:02.994Z,13.14
2023-03-20T08:04:05.119Z,12.79
2023-03-20T08:09:07.216Z,12.61
2023-03-20T08:14:08.954Z,12.73
2023-03-20T08:19:10.849Z,12.63
2023-03-20T08:24:12.715Z,12.50
2023-03-20T08:29:17.369Z,12.38
2023-03-20T08:34:19.199Z,12.42
2023-03-20T08:39:21.841Z,12.33
2023-03-20T08:44:23.868Z,12.17
2023-03-20T08:49:25.875Z,12.53
2023-03-20T08:54:27.724Z,12.86
2023-03-20T08:59:29.483Z,12.65
2023-03-20T09:04:31.162Z,12.63
2023-03-20T09:09:33.389Z,12.73
2023-03-20T09:14:35.129Z,12.85
2023-03-20T09:19:40.003Z,13.02
2023-03-20T09:24:41.843Z,13.34
2023-03-20T09:29:43.928Z,13.26
2023-03-20T09:34:45.971Z,13.35
2023-03-20T09:39:47.748Z,13.31
2023-03-20T09:45:11.917Z,13.28
2023-03-20T09:50:34.495Z,13.61
2023-03-20T09:55:40.236Z,13.18
2023-03-20T10:00:46.231Z,12.97
2023-03-20T10:05:59.113Z,13.02
2023-03-20T10:11:43.419Z,13.35
2023-03-20T10:16:57.407Z,14.30
2023-03-20T10:22:22.505Z,14.47
2023-03-20T10:27:28.233Z,14.41
2023-03-20T10:32:38.467Z,14.81
2023-03-20T10:38:04.535Z,15.13
2023-03-20T10:43:21.651Z,15.05
2023-03-20T10:48:40.972Z,14.75
2023-03-20T10:53:48.645Z,13.75
2023-03-20T10:58:59.636Z,13.70
2023-03-20T11:04:01.785Z,13.73
2023-03-20T11:09:19.257Z,14.05
2023-03-20T11:14:23.998Z,13.99
2023-03-20T11:19:25.919Z,13.40
2023-03-20T11:24:48.658Z,13.29
2023-03-20T11:29:52.214Z,13.50
2023-03-20T11:34:57.463Z,13.16
2023-03-20T11:39:59.441Z,13.10
2023-03-20T11:45:18.709Z,13.21
2023-03-20T11:50:36.673Z,13.40
2023-03-20T11:55:38.670Z,13.18
2023-03-20T12:00:42.966Z,13.18
2023-03-20T12:05:44.694Z,13.26
2023-03-20T12:10:55.601Z,13.26
2023-03-20T12:16:13.710Z,12.91
2023-03-20T12:21:27.079Z,12.90
2023-03-20T12:26:45.834Z,13.10
2023-03-20T12:32:07.242Z,12.73
2023-03-20T12:37:11.914Z,12.70
2023-03-20T12:42:41.410Z,12.56
2023-03-20T12:47:46.169Z,12.54
2023-03-20T12:53:19.647Z,12.99
2023-03-20T12:58:27.378Z,13.38
2023-03-20T13:04:06.164Z,13.38
2023-03-20T13:09:20.602Z,13.18
2023-03-20T13:14:24.927Z,13.21
2023-03-20T13:20:03.030Z,13.16
2023-03-20T13:25:32.289Z,12.86
2023-03-20T13:30:47.209Z,12.87
2023-03-20T13:35:57.713Z,13.02
2023-03-20T13:41:06.273Z,13.03
2023-03-20T13:46:16.691Z,12.87
2023-03-20T13:51:44.589Z,12.72
2023-03-20T13:56:54.908Z,12.74
2023-03-20T14:02:06.604Z,12.75
2023-03-20T14:07:37.579Z,12.62
2023-03-20T14:12:39.257Z,12.53
2023-03-20T14:17:44.639Z,12.47
2023-03-20T14:22:49.039Z,12.22
2023-03-20T14:27:55.792Z,12.15
2023-03-20T14:33:12.730Z,11.88
2023-03-20T14:38:39.548Z,11.79
2023-03-20T14:44:00.924Z,11.56
2023-03-20T14:49:22.234Z,11.35
2023-03-20T14:54:23.932Z,11.30
2023-03-20T14:59:25.718Z,11.29
2023-03-20T15:04:38.705Z,11.32
2023-03-20T15:09:44.239Z,11.16
2023-03-20T15:14:54.983Z,11.41
2023-03-20T15:20:03.167Z,11.32
2023-03-20T15:25:05.098Z,10.91
2023-03-20T15:30:07.806Z,10.83
2023-03-20T15:35:28.061Z,10.83
2023-03-20T15:40:49.152Z,10.95
2023-03-20T15:46:02.981Z,10.81
2023-03-20T15:51:12.256Z,10.88
2023-03-20T15:56:19.384Z,10.79
2023-03-20T16:01:23.800Z,10.86
2023-03-20T16:06:26.744Z,10.76
2023-03-20T16:11:40.498Z,10.67
2023-03-20T16:16:43.269Z,10.67
2023-03-20T16:21:51.082Z,10.99
2023-03-20T16:26:53.349Z,10.85
2023-03-20T16:32:20.766Z,10.73
2023-03-20T16:37:28.849Z,10.82
2023-03-20T16:42:30.889Z,10.73
2023-03-20T16:47:38.395Z,10.70
2023-03-20T16:52:44.667Z,10.73
2023-03-20T16:57:49.803Z,10.72
2023-03-20T17:02:59.606Z,10.53
2023-03-20T17:08:10.680Z,10.70
2023-03-20T17:13:12.395Z,10.67
2023-03-20T17:18:14.599Z,10.51
2023-03-20T17:23:21.018Z,10.57
2023-03-20T17:28:28.067Z,10.56
2023-03-20T17:33:29.938Z,10.43
2023-03-20T17:38:31.711Z,10.49
2023-03-20T17:43:33.443Z,10.48
2023-03-20T17:48:35.152Z,10.40
2023-03-20T17:53:36.920Z,10.36
2023-03-20T17:58:39.462Z,10.40
2023-03-20T18:03:41.382Z,10.47
2023-03-20T18:08:43.106Z,10.31
2023-03-20T18:13:45.110Z,10.35
2023-03-20T18:18:47.256Z,10.39
2023-03-20T18:23:49.056Z,10.42
2023-03-20T18:28:52.517Z,10.27
2023-03-20T18:33:54.654Z,10.32
2023-03-20T18:38:56.519Z,10.31
2023-03-20T18:43:58.296Z,10.15
2023-03-20T18:49:00.038Z,10.02
2023-03-20T18:54:01.726Z,9.95
2023-03-20T18:59:09.484Z,9.95
2023-03-20T19:04:11.285Z,9.88
2023-03-20T19:09:13.022Z,9.86
2023-03-20T19:14:14.832Z,9.87
2023-03-20T19:19:16.503Z,10.33
2023-03-20T19:24:21.485Z,10.08
2023-03-20T19:29:23.297Z,10.20
2023-03-20T19:35:10.843Z,10.24
2023-03-20T19:39:46.598Z,10.28
2023-03-20T19:44:48.202Z,10.37
2023-03-20T19:49:50.145Z,10.29
2023-03-20T19:55:02.158Z,10.17
2023-03-20T20:00:55.841Z,10.11
2023-03-20T20:05:31.146Z,9.91
2023-03-20T20:10:36.003Z,9.90
2023-03-20T20:15:38.985Z,9.83
2023-03-20T20:21:24.596Z,9.63
2023-03-20T20:26:09.559Z,9.48
2023-03-20T20:31:11.292Z,9.40
2023-03-20T20:37:11.116Z,9.14
2023-03-20T20:41:36.330Z,9.27
2023-03-20T20:46:38.232Z,9.29
2023-03-20T20:51:39.990Z,9.47
2023-03-20T20:56:41.789Z,9.54
2023-03-20T21:01:43.828Z,9.47
2023-03-20T21:07:15.592Z,9.72
2023-03-20T21:12:10.577Z,9.79
2023-03-20T21:17:12.746Z,9.84
2023-03-20T21:22:15.941Z,9.84
2023-03-20T21:27:20.467Z,9.77
2023-03-20T21:32:22.274Z,9.71
2023-03-20T21:38:28.563Z,9.69
2023-03-20T21:42:46.550Z,9.86
2023-03-20T21:48:35.073Z,9.64
2023-03-20T21:59:22.813Z,9.60
2023-03-20T22:04:54.970Z,9.79
2023-03-20T22:26:18.366Z,9.72
2023-03-20T22:37:14.279Z,9.63
2023-03-20T22:47:01.515Z,9.61
2023-03-20T22:52:19.633Z,9.77
2023-03-20T22:57:26.659Z,9.70
2023-03-20T23:02:37.053Z,9.57
2023-03-20T23:07:38.798Z,9.62
2023-03-20T23:12:43.572Z,9.63
2023-03-20T23:17:46.023Z,9.47
2023-03-20T23:22:47.831Z,9.40
2023-03-20T23:27:49.536Z,9.54
2023-03-20T23:32:51.173Z,9.48
2023-03-20T23:37:52.908Z,9.45
2023-03-20T23:42:54.607Z,9.39
2023-03-20T23:47:56.301Z,9.49
2023-03-20T23:53:09.534Z,9.33
2023-03-20T23:58:16.300Z,9.32
